PWSweather.com
Personal Weather Stations
Station Observations
PENICUIKWS
PenicuikGB

PenicuikGB

Lat: 55.830932, Lon: -3.224533000000065

Elevation: 166

Station Type: Fine Offset

http://weather.penicuik.org

Latest ConditionsUpdated 1:15:00 PM GMT Thursday, Nov 14, 2019
Currently Today's Max Today's Min Today's Average
Temperature 40.1°F4.5°C 48.4°F9.1°C 30.7°F-0.7°C 36.3°F2.4°C
Dew Point 31.1°F-0.5°C 42.1°F5.6°C 28.3°F-2.1°C 31.7°F-0.2°C
Winds 4.2 mph N6.8 kmh N 4.6 mph -7.4 kmh - - 1.1 mph 1.8 kmh
Wind Gusts 8.3 mph13.4 kmh 8.3 mph13.4 kmh - -
Humidity 70% 94% 57% 84%
Pressure 29.78 in1008.5 mb 29.78 in1008.5 mb 29.50 in999.0 mb -
Precipitation - 0.01 in0.3 mm - -
Hour Temp Dew Point Humidity Winds Wind Gusts Pressure Precip Precip Rate Daily Precip Total
01:15 PM 40.1°F4.5°C 31.1°F-0.5°C 70% 4.2 mph N6.8 kmh N 8.3 mph13.4 kmh 29.78 in1008.5 mb 0.00 in0.0 mm 0.00 in0.0 mm 0.01 in0.3 mm
01:00 PM 40.1°F4.5°C 30.8°F-0.7°C 69% 4.0 mph NNE6.4 kmh NNE 6.9 mph11.1 kmh 29.78 in1008.5 mb 0.00 in0.0 mm 0.00 in0.0 mm 0.01 in0.3 mm
12:45 PM 40.1°F4.5°C 30.4°F-0.9°C 68% 4.6 mph NNE7.4 kmh NNE 8.3 mph13.4 kmh 29.76 in1007.8 mb 0.00 in0.0 mm 0.00 in0.0 mm 0.01 in0.3 mm
12:30 PM 40.6°F4.8°C 30.6°F-0.8°C 67% 4.4 mph N7.1 kmh N 6.9 mph11.1 kmh 29.76 in1007.8 mb 0.00 in0.0 mm 0.00 in0.0 mm 0.01 in0.3 mm
12:15 PM 41.0°F5.0°C 30.2°F-1.0°C 65% 3.7 mph NE6.0 kmh NE 6.0 mph9.7 kmh 29.76 in1007.8 mb 0.00 in0.0 mm 0.00 in0.0 mm 0.01 in0.3 mm
12:00 PM 42.6°F5.9°C 30.5°F-0.8°C 62% 3.5 mph NNE5.6 kmh NNE 7.6 mph12.2 kmh 29.76 in1007.8 mb 0.00 in0.0 mm 0.00 in0.0 mm 0.01 in0.3 mm
11:45 AM 46.2°F7.9°C 32.3°F0.2°C 58% 2.6 mph NE4.2 kmh NE 3.1 mph5.0 kmh 29.75 in1007.5 mb 0.00 in0.0 mm 0.00 in0.0 mm 0.01 in0.3 mm
11:30 AM 46.9°F8.3°C 32.5°F0.3°C 57% 3.1 mph NNW5.0 kmh NNW 6.0 mph9.7 kmh 29.76 in1007.8 mb 0.00 in0.0 mm 0.00 in0.0 mm 0.01 in0.3 mm
11:15 AM 45.1°F7.3°C 32.9°F0.5°C 62% 2.1 mph NNE3.4 kmh NNE 3.1 mph5.0 kmh 29.75 in1007.5 mb 0.00 in0.0 mm 0.00 in0.0 mm 0.01 in0.3 mm
11:00 AM 45.1°F7.3°C 31.3°F-0.4°C 58% 1.9 mph N3.1 kmh N 3.8 mph6.1 kmh 29.75 in1007.5 mb 0.00 in0.0 mm 0.00 in0.0 mm 0.01 in0.3 mm
10:45 AM 48.4°F9.1°C 35.6°F2.0°C 61% 1.7 mph NNE2.7 kmh NNE 3.1 mph5.0 kmh 29.75 in1007.5 mb 0.00 in0.0 mm 0.00 in0.0 mm 0.01 in0.3 mm
10:30 AM 45.9°F7.7°C 34.4°F1.3°C 64% 1.8 mph N2.9 kmh N 3.1 mph5.0 kmh 29.75 in1007.5 mb 0.00 in0.0 mm 0.00 in0.0 mm 0.01 in0.3 mm
10:15 AM 42.6°F5.9°C 35.3°F1.8°C 75% 2.7 mph NNE4.3 kmh NNE 4.5 mph7.2 kmh 29.75 in1007.5 mb 0.00 in0.0 mm 0.00 in0.0 mm 0.01 in0.3 mm
10:00 AM 41.7°F5.4°C 36.9°F2.7°C 83% 1.1 mph N1.8 kmh N 3.8 mph6.1 kmh 29.75 in1007.5 mb 0.00 in0.0 mm 0.00 in0.0 mm 0.01 in0.3 mm
09:45 AM 44.6°F7.0°C 42.1°F5.6°C 91% Calm Calm -- 29.75 in1007.5 mb 0.00 in0.0 mm 0.00 in0.0 mm 0.01 in0.3 mm
09:30 AM 38.1°F3.4°C 36.6°F2.6°C 94% Calm Calm -- 29.74 in1007.1 mb 0.00 in0.0 mm 0.00 in0.0 mm 0.01 in0.3 mm
09:15 AM 34.2°F1.2°C 31.5°F-0.3°C 90% Calm Calm -- 29.73 in1006.8 mb 0.00 in0.0 mm 0.00 in0.0 mm 0.01 in0.3 mm
09:00 AM 32.4°F0.2°C 29.8°F-1.2°C 90% Calm Calm -- 29.73 in1006.8 mb 0.00 in0.0 mm 0.00 in0.0 mm 0.01 in0.3 mm
08:45 AM 31.5°F-0.3°C 29.2°F-1.6°C 91% Calm Calm -- 29.73 in1006.8 mb 0.00 in0.0 mm 0.00 in0.0 mm 0.01 in0.3 mm
08:30 AM 30.9°F-0.6°C 28.6°F-1.9°C 91% Calm Calm -- 29.72 in1006.4 mb 0.00 in0.0 mm 0.00 in0.0 mm 0.01 in0.3 mm
08:15 AM 30.9°F-0.6°C 28.6°F-1.9°C 91% Calm Calm -- 29.70 in1005.8 mb 0.00 in0.0 mm 0.00 in0.0 mm 0.01 in0.3 mm
08:00 AM 31.1°F-0.5°C 28.8°F-1.8°C 91% Calm Calm -- 29.70 in1005.8 mb 0.00 in0.0 mm 0.00 in0.0 mm 0.01 in0.3 mm
07:45 AM 31.3°F-0.4°C 29.0°F-1.7°C 91% Calm Calm -- 29.69 in1005.4 mb 0.00 in0.0 mm 0.00 in0.0 mm 0.01 in0.3 mm
07:30 AM 32.0°F0.0°C 29.4°F-1.4°C 90% Calm Calm -- 29.69 in1005.4 mb 0.00 in0.0 mm 0.00 in0.0 mm 0.01 in0.3 mm
07:15 AM 31.8°F-0.1°C 29.5°F-1.4°C 91% Calm Calm -- 29.69 in1005.4 mb 0.00 in0.0 mm 0.00 in0.0 mm 0.01 in0.3 mm
07:00 AM 31.3°F-0.4°C 29.0°F-1.7°C 91% Calm Calm -- 29.67 in1004.7 mb 0.00 in0.0 mm 0.00 in0.0 mm 0.01 in0.3 mm
06:45 AM 30.7°F-0.7°C 28.4°F-2.0°C 91% Calm Calm -- 29.66 in1004.4 mb 0.00 in0.0 mm 0.00 in0.0 mm 0.01 in0.3 mm
06:30 AM 30.7°F-0.7°C 28.4°F-2.0°C 91% Calm Calm -- 29.66 in1004.4 mb 0.00 in0.0 mm 0.00 in0.0 mm 0.01 in0.3 mm
06:15 AM 30.9°F-0.6°C 28.3°F-2.1°C 90% Calm Calm -- 29.65 in1004.1 mb 0.00 in0.0 mm 0.00 in0.0 mm 0.01 in0.3 mm
06:00 AM 31.5°F-0.3°C 29.2°F-1.6°C 91% Calm Calm -- 29.65 in1004.1 mb 0.00 in0.0 mm 0.00 in0.0 mm 0.01 in0.3 mm
05:45 AM 31.6°F-0.2°C 29.3°F-1.5°C 91% 0.1 mph N0.2 kmh N 0.7 mph1.1 kmh 29.64 in1003.7 mb 0.00 in0.0 mm 0.00 in0.0 mm 0.01 in0.3 mm
05:30 AM 31.5°F-0.3°C 28.9°F-1.7°C 90% 0.2 mph N0.3 kmh N 0.7 mph1.1 kmh 29.63 in1003.4 mb 0.00 in0.0 mm 0.00 in0.0 mm 0.01 in0.3 mm
05:15 AM 32.4°F0.2°C 29.8°F-1.2°C 90% Calm Calm -- 29.62 in1003.0 mb 0.00 in0.0 mm 0.00 in0.0 mm 0.01 in0.3 mm
05:00 AM 33.1°F0.6°C 30.5°F-0.8°C 90% 0.2 mph NNE0.3 kmh NNE 1.6 mph2.6 kmh 29.62 in1003.0 mb 0.00 in0.0 mm 0.00 in0.0 mm 0.01 in0.3 mm
04:45 AM 33.6°F0.9°C 31.0°F-0.6°C 90% 0.6 mph N1.0 kmh N 3.1 mph5.0 kmh 29.61 in1002.7 mb 0.00 in0.0 mm 0.00 in0.0 mm 0.01 in0.3 mm
04:30 AM 34.5°F1.4°C 31.6°F-0.2°C 89% 1.1 mph N1.8 kmh N 2.2 mph3.5 kmh 29.60 in1002.4 mb 0.00 in0.0 mm 0.00 in0.0 mm 0.01 in0.3 mm
04:15 AM 34.3°F1.3°C 31.4°F-0.3°C 89% 0.8 mph N1.3 kmh N 6.0 mph9.7 kmh 29.59 in1002.0 mb 0.00 in0.0 mm 0.00 in0.0 mm 0.01 in0.3 mm
04:00 AM 35.2°F1.8°C 32.6°F0.3°C 90% 0.6 mph NE1.0 kmh NE 3.8 mph6.1 kmh 29.59 in1002.0 mb 0.00 in0.0 mm 0.00 in0.0 mm 0.01 in0.3 mm
03:45 AM 35.8°F2.1°C 32.9°F0.5°C 89% 1.1 mph NNE1.8 kmh NNE 4.5 mph7.2 kmh 29.58 in1001.7 mb 0.00 in0.0 mm 0.00 in0.0 mm 0.01 in0.3 mm
03:30 AM 35.8°F2.1°C 33.1°F0.6°C 90% 2.3 mph N3.7 kmh N 4.5 mph7.2 kmh 29.58 in1001.7 mb 0.00 in0.0 mm 0.00 in0.0 mm 0.01 in0.3 mm
03:15 AM 35.6°F2.0°C 33.0°F0.6°C 90% 2.4 mph N3.9 kmh N 4.5 mph7.2 kmh 29.57 in1001.4 mb 0.00 in0.0 mm 0.00 in0.0 mm 0.01 in0.3 mm
03:00 AM 35.6°F2.0°C 33.0°F0.6°C 90% 2.9 mph N4.7 kmh N 7.6 mph12.2 kmh 29.57 in1001.4 mb 0.00 in0.0 mm 0.00 in0.0 mm 0.01 in0.3 mm
02:45 AM 35.4°F1.9°C 33.1°F0.6°C 91% 2.0 mph N3.2 kmh N 4.5 mph7.2 kmh 29.56 in1001.0 mb 0.00 in0.0 mm 0.00 in0.0 mm 0.01 in0.3 mm
02:30 AM 35.8°F2.1°C 33.1°F0.6°C 90% Calm Calm -- 29.55 in1000.7 mb 0.00 in0.0 mm 0.00 in0.0 mm 0.01 in0.3 mm
02:15 AM 35.4°F1.9°C 33.1°F0.6°C 91% Calm Calm -- 29.55 in1000.7 mb 0.00 in0.0 mm 0.00 in0.0 mm 0.01 in0.3 mm
02:00 AM 35.4°F1.9°C 33.1°F0.6°C 91% Calm Calm -- 29.55 in1000.7 mb 0.01 in0.3 mm 0.00 in0.0 mm 0.01 in0.3 mm
01:45 AM 35.4°F1.9°C 33.1°F0.6°C 91% Calm Calm -- 29.54 in1000.3 mb 0.01 in0.3 mm 0.00 in0.0 mm 0.01 in0.3 mm
01:30 AM 35.4°F1.9°C 32.8°F0.4°C 90% 0.8 mph N1.3 kmh N 1.6 mph2.6 kmh 29.53 in1000.0 mb 0.01 in0.3 mm 0.00 in0.0 mm 0.01 in0.3 mm
01:15 AM 35.2°F1.8°C 32.6°F0.3°C 90% Calm Calm -- 29.53 in1000.0 mb 0.01 in0.3 mm 0.04 in1.0 mm 0.01 in0.3 mm
01:00 AM 35.1°F1.7°C 32.4°F0.2°C 90% Calm Calm -- 29.52 in999.7 mb 0.00 in0.0 mm 0.00 in0.0 mm 0.00 in0.0 mm
12:45 AM 35.1°F1.7°C 32.4°F0.2°C 90% 1.3 mph N2.1 kmh N 3.1 mph5.0 kmh 29.52 in999.7 mb 0.00 in0.0 mm 0.00 in0.0 mm 0.00 in0.0 mm
12:30 AM 34.5°F1.4°C 31.9°F-0.1°C 90% Calm Calm -- 29.52 in999.7 mb 0.00 in0.0 mm 0.00 in0.0 mm 0.00 in0.0 mm
12:15 AM 34.5°F1.4°C 31.9°F-0.1°C 90% Calm Calm -- 29.51 in999.3 mb 0.00 in0.0 mm 0.00 in0.0 mm 0.00 in0.0 mm
12:00 AM 34.2°F1.2°C 31.5°F-0.3°C 90% Calm Calm -- 29.50 in999.0 mb 0.00 in0.0 mm 0.00 in0.0 mm 0.00 in0.0 mm